Time;durP1;ratioP1;P1;durP2;ratioP2;P2;SDS_P1;SDS_P2;PMS_P1;PMS_P2;Temp;Humidity;BMP_temperature;BMP_pressure;BME280_temperature;BME280_humidity;BME280_pressure;Samples;Min_cycle;Max_cycle;Signal;HPM_P1;HPM_P2
2022/12/26 00:40:41;;;;;;;31.05;12.27;;;;;;;;;;10232138;23;20080;-92
2022/12/26 00:44:50;;;;;;;22.58;12.13;;;;;;;;;;10209465;23;20085;-91
2022/12/26 00:48:55;;;;;;;27.67;12.15;;;;;;;;;;10211487;23;20029;-90
2022/12/26 00:53:01;;;;;;;28.58;11.60;;;;;;;;;;10210824;23;20068;-91
2022/12/26 00:57:11;;;;;;;28.38;12.00;;;;;;;;;;10236092;23;20028;-90
2022/12/26 01:01:23;;;;;;;22.50;10.90;;;;;;;;;;10211403;23;20006;-92
2022/12/26 01:05:28;;;;;;;27.80;11.75;;;;;;;;;;10211370;23;20001;-91
2022/12/26 01:09:48;;;;;;;27.20;11.95;;;;;;;;;;10202430;23;20013;-92
2022/12/26 01:19:05;;;;;;;25.02;11.13;;;;;;;;;;10163469;23;20014;-93
2022/12/26 01:44:52;;;;;;;22.00;9.85;;;;;;;;;;10427335;22;20016;-93
2022/12/26 01:49:28;;;;;;;24.23;11.25;;;;;;;;;;10405605;22;20019;-92
2022/12/26 01:53:53;;;;;;;14.55;7.65;;;;;;;;;;10425539;22;20077;-91
2022/12/26 01:58:08;;;;;;;19.98;10.80;;;;;;;;;;10423388;22;20014;-92
2022/12/26 02:05:32;;;;;;;18.45;9.20;;;;;;;;;;10371299;22;19999;-91
2022/12/26 02:07:07;;;;;;;20.27;9.18;;;;;;;;;;10392268;22;20011;-94
2022/12/26 02:11:18;;;;;;;23.63;10.85;;;;;;;;;;10390328;22;20016;-94
2022/12/26 02:15:43;;;;;;;22.73;12.07;;;;;;;;;;10394848;22;20019;-93
2022/12/26 02:20:00;;;;;;;13.55;6.72;;;;;;;;;;10365575;22;20049;-94
2022/12/26 02:24:46;;;;;;;21.33;8.13;;;;;;;;;;10390295;22;20012;-93
2022/12/26 02:29:32;;;;;;;18.67;9.80;;;;;;;;;;10370860;22;20081;-93
2022/12/26 03:14:01;;;;;;;25.58;11.30;;;;;;;;;;9806281;24;20045;-93
2022/12/26 03:18:11;;;;;;;24.80;11.60;;;;;;;;;;9876152;24;20012;-93
2022/12/26 03:26:49;;;;;;;24.75;11.60;;;;;;;;;;10039263;23;20035;-91
2022/12/26 03:31:43;;;;;;;25.48;12.90;;;;;;;;;;9970770;23;20027;-91
2022/12/26 03:36:15;;;;;;;21.33;11.57;;;;;;;;;;10193904;23;20013;-92
2022/12/26 04:45:00;;;;;;;23.10;10.27;;;;;;;;;;9614963;24;20026;-93
2022/12/26 04:53:35;;;;;;;20.15;10.10;;;;;;;;;;9597918;24;20018;-93
2022/12/26 04:57:45;;;;;;;17.10;9.60;;;;;;;;;;9824406;24;20020;-93
2022/12/26 05:10:34;;;;;;;15.80;9.95;;;;;;;;;;9926959;23;20090;-94
2022/12/26 05:14:40;;;;;;;15.68;8.55;;;;;;;;;;9942662;23;20016;-93
2022/12/26 05:37:17;;;;;;;15.82;8.25;;;;;;;;;;10218401;23;20018;-94
2022/12/26 05:41:37;;;;;;;16.42;9.50;;;;;;;;;;10221205;23;20006;-95
2022/12/26 05:45:47;;;;;;;10.00;5.30;;;;;;;;;;10159238;23;20013;-94
2022/12/26 05:49:57;;;;;;;18.90;9.23;;;;;;;;;;10206617;23;20022;-95
2022/12/26 05:54:07;;;;;;;9.98;6.15;;;;;;;;;;10222991;23;20102;-93
2022/12/26 05:58:16;;;;;;;18.88;8.40;;;;;;;;;;10175029;23;20024;-93
2022/12/26 06:02:23;;;;;;;20.00;9.18;;;;;;;;;;10192445;23;20040;-95
2022/12/26 06:06:39;;;;;;;11.48;6.60;;;;;;;;;;10343403;23;20044;-94
2022/12/26 06:10:52;;;;;;;18.00;8.82;;;;;;;;;;10368034;23;20009;-94
2022/12/26 06:15:11;;;;;;;19.02;8.93;;;;;;;;;;10369343;23;20019;-94
2022/12/26 06:19:18;;;;;;;17.70;9.38;;;;;;;;;;10346920;23;20019;-94
2022/12/26 06:23:24;;;;;;;16.05;8.98;;;;;;;;;;10345013;23;20012;-93
2022/12/26 06:27:33;;;;;;;19.67;9.90;;;;;;;;;;10316941;23;20018;-93
2022/12/26 06:41:22;;;;;;;16.77;8.35;;;;;;;;;;10222550;23;20073;-92
2022/12/26 06:45:45;;;;;;;19.70;9.98;;;;;;;;;;10200636;23;20069;-94
2022/12/26 06:50:06;;;;;;;19.30;9.07;;;;;;;;;;10196950;23;20001;-94
2022/12/26 06:54:14;;;;;;;19.70;9.20;;;;;;;;;;10190549;23;20018;-94
2022/12/26 06:58:25;;;;;;;18.38;9.30;;;;;;;;;;10213829;23;20121;-94
2022/12/26 07:02:42;;;;;;;14.15;7.85;;;;;;;;;;10159195;23;20020;-93
2022/12/26 07:06:50;;;;;;;20.45;9.25;;;;;;;;;;10185814;23;20171;-92
2022/12/26 07:10:56;;;;;;;21.63;10.02;;;;;;;;;;10180468;23;20029;-94
2022/12/26 07:15:04;;;;;;;19.52;9.68;;;;;;;;;;10184509;23;20020;-93
2022/12/26 07:19:21;;;;;;;14.05;7.85;;;;;;;;;;10213406;23;20024;-94
2022/12/26 07:28:17;;;;;;;21.63;10.13;;;;;;;;;;10207538;23;20013;-92
2022/12/26 07:32:35;;;;;;;27.53;11.20;;;;;;;;;;10189531;23;20052;-93
2022/12/26 07:36:44;;;;;;;18.80;10.25;;;;;;;;;;10264237;23;20023;-92
2022/12/26 07:41:56;;;;;;;14.02;8.25;;;;;;;;;;10361315;23;20012;-92
2022/12/26 07:45:47;;;;;;;23.80;11.10;;;;;;;;;;10361942;23;20023;-93
2022/12/26 07:50:06;;;;;;;21.38;10.05;;;;;;;;;;10307389;23;20015;-92
2022/12/26 07:58:56;;;;;;;31.70;16.85;;;;;;;;;;10190706;23;20072;-92
2022/12/26 08:03:01;;;;;;;23.83;11.77;;;;;;;;;;10200164;23;20017;-92
2022/12/26 08:07:06;;;;;;;28.38;15.23;;;;;;;;;;10227051;23;20028;-93
2022/12/26 08:11:16;;;;;;;33.13;15.27;;;;;;;;;;10187782;23;20029;-92
2022/12/26 08:15:24;;;;;;;26.65;13.73;;;;;;;;;;10177013;23;20013;-92
2022/12/26 08:19:30;;;;;;;26.40;12.48;;;;;;;;;;10148623;23;20010;-94
2022/12/26 08:23:37;;;;;;;26.42;12.57;;;;;;;;;;10189222;23;20013;-94
2022/12/26 08:27:43;;;;;;;21.50;11.90;;;;;;;;;;10191091;23;20013;-93
2022/12/26 08:31:56;;;;;;;27.67;14.90;;;;;;;;;;10178234;23;20013;-92
2022/12/26 08:36:17;;;;;;;30.65;15.07;;;;;;;;;;10177881;23;20013;-93
2022/12/26 08:40:29;;;;;;;26.55;13.55;;;;;;;;;;10180750;23;20018;-92
2022/12/26 08:44:36;;;;;;;24.05;13.80;;;;;;;;;;10180718;23;20068;-93
2022/12/26 08:48:45;;;;;;;25.83;13.18;;;;;;;;;;10289626;23;20012;-93
2022/12/26 08:52:51;;;;;;;33.35;17.48;;;;;;;;;;10324536;23;20016;-92
2022/12/26 08:56:58;;;;;;;33.22;17.08;;;;;;;;;;10321552;23;20012;-92
2022/12/26 09:01:08;;;;;;;32.38;17.45;;;;;;;;;;10348310;23;20012;-92
2022/12/26 09:05:29;;;;;;;29.77;15.95;;;;;;;;;;10349954;23;20012;-93
2022/12/26 09:09:38;;;;;;;34.35;17.98;;;;;;;;;;10357090;23;20012;-94
2022/12/26 09:13:53;;;;;;;15.77;9.88;;;;;;;;;;10350630;23;20012;-93
2022/12/26 09:17:58;;;;;;;22.67;12.52;;;;;;;;;;10357182;22;20020;-92
2022/12/26 09:26:27;;;;;;;26.52;15.45;;;;;;;;;;10351355;23;20023;-92
2022/12/26 09:30:32;;;;;;;16.67;10.20;;;;;;;;;;10357684;23;20016;-95
2022/12/26 09:34:40;;;;;;;25.10;12.82;;;;;;;;;;10353574;23;20028;-95
2022/12/26 09:38:50;;;;;;;23.17;13.38;;;;;;;;;;10355461;23;20024;-93
2022/12/26 09:43:10;;;;;;;27.97;15.23;;;;;;;;;;10371920;23;20023;-95
2022/12/26 09:47:29;;;;;;;21.67;11.48;;;;;;;;;;10349921;23;20091;-93
2022/12/26 09:51:36;;;;;;;21.13;11.90;;;;;;;;;;10350712;23;20051;-96
2022/12/26 09:56:01;;;;;;;24.85;13.23;;;;;;;;;;10363568;23;20060;-95
2022/12/26 10:00:21;;;;;;;25.85;14.38;;;;;;;;;;10361794;23;20008;-94
2022/12/26 10:04:31;;;;;;;28.90;15.07;;;;;;;;;;10265100;23;20013;-96
2022/12/26 10:09:08;;;;;;;20.95;11.73;;;;;;;;;;10258096;23;20361;-95
2022/12/26 10:13:32;;;;;;;23.63;13.10;;;;;;;;;;10258448;23;20012;-96
2022/12/26 10:17:56;;;;;;;42.35;19.45;;;;;;;;;;10267568;23;20013;-92
2022/12/26 10:22:16;;;;;;;42.15;22.40;;;;;;;;;;10252722;23;20017;-93
2022/12/26 10:26:38;;;;;;;22.88;14.50;;;;;;;;;;10276599;23;20024;-95
2022/12/26 10:30:49;;;;;;;20.42;11.80;;;;;;;;;;10240717;23;20005;-93
2022/12/26 10:34:57;;;;;;;26.77;16.48;;;;;;;;;;10266116;23;20021;-93
2022/12/26 10:39:06;;;;;;;26.20;16.15;;;;;;;;;;10259089;23;20001;-92
2022/12/26 10:43:23;;;;;;;25.70;14.25;;;;;;;;;;10232538;23;20013;-93
2022/12/26 10:47:39;;;;;;;27.33;14.50;;;;;;;;;;10281954;23;20068;-93
2022/12/26 10:52:01;;;;;;;25.92;15.45;;;;;;;;;;10159580;23;20065;-92
2022/12/26 10:56:10;;;;;;;41.65;23.45;;;;;;;;;;10260951;23;20013;-93
2022/12/26 11:00:19;;;;;;;34.42;20.40;;;;;;;;;;10253328;23;20080;-93
2022/12/26 11:04:27;;;;;;;37.67;22.13;;;;;;;;;;10259651;23;20021;-94
2022/12/26 11:08:54;;;;;;;43.60;25.65;;;;;;;;;;10266483;23;20033;-95
2022/12/26 11:33:52;;;;;;;33.33;17.25;;;;;;;;;;10206127;22;20018;-96
2022/12/26 11:57:01;;;;;;;24.02;12.55;;;;;;;;;;10418515;22;20458;-96
2022/12/26 12:01:18;;;;;;;32.95;17.42;;;;;;;;;;10400566;22;20030;-96
2022/12/26 12:10:30;;;;;;;28.65;15.32;;;;;;;;;;10269632;23;20017;-96
2022/12/26 12:15:12;;;;;;;;;;;;;;;;;;10245667;23;20019;-96
2022/12/26 12:25:36;;;;;;;23.05;12.23;;;;;;;;;;10076384;23;20022;-96
2022/12/26 12:45:21;;;;;;;25.50;14.38;;;;;;;;;;10534531;22;20007;-96
2022/12/26 13:04:57;;;;;;;19.00;10.80;;;;;;;;;;10471926;22;20008;-96
2022/12/26 13:14:48;;;;;;;16.13;9.13;;;;;;;;;;10401886;22;20034;-93
2022/12/26 13:18:56;;;;;;;24.02;12.77;;;;;;;;;;10378626;22;20019;-94
2022/12/26 13:27:34;;;;;;;23.48;12.32;;;;;;;;;;10366378;22;20023;-93
2022/12/26 13:31:42;;;;;;;18.70;9.60;;;;;;;;;;10367603;22;20026;-92
2022/12/26 13:35:56;;;;;;;16.90;10.32;;;;;;;;;;10365675;22;20083;-92
2022/12/26 13:40:02;;;;;;;17.30;10.25;;;;;;;;;;10367161;22;20011;-93
2022/12/26 13:44:07;;;;;;;16.85;9.98;;;;;;;;;;10364819;22;20019;-93
2022/12/26 13:48:44;;;;;;;18.08;9.23;;;;;;;;;;10364276;22;20012;-95
2022/12/26 13:52:54;;;;;;;17.17;8.85;;;;;;;;;;10364592;22;20020;-96
2022/12/26 13:57:38;;;;;;;19.33;10.70;;;;;;;;;;10365681;22;20016;-96
2022/12/26 14:01:56;;;;;;;16.60;9.30;;;;;;;;;;10365188;22;20016;-95
2022/12/26 14:06:31;;;;;;;16.15;9.02;;;;;;;;;;10377942;22;20022;-95
2022/12/26 14:10:55;;;;;;;14.32;8.27;;;;;;;;;;10418508;22;20057;-95
2022/12/26 14:15:30;;;;;;;14.45;7.80;;;;;;;;;;10439131;22;20011;-96
2022/12/26 14:19:51;;;;;;;16.10;8.20;;;;;;;;;;10443905;22;20006;-96
2022/12/26 14:24:06;;;;;;;12.18;8.25;;;;;;;;;;10437643;22;20015;-96
2022/12/26 14:28:29;;;;;;;14.77;8.85;;;;;;;;;;10453586;22;20022;-96
2022/12/26 14:32:50;;;;;;;15.40;8.60;;;;;;;;;;10426470;22;20030;-95
2022/12/26 14:47:04;;;;;;;16.05;8.95;;;;;;;;;;10419741;22;20011;-94
2022/12/26 14:51:39;;;;;;;17.02;9.50;;;;;;;;;;10419857;22;20012;-94
2022/12/26 14:55:58;;;;;;;17.38;9.85;;;;;;;;;;10418835;22;20054;-96
2022/12/26 15:00:41;;;;;;;34.00;19.23;;;;;;;;;;10424010;22;20011;-95
2022/12/26 15:22:07;;;;;;;19.42;9.32;;;;;;;;;;10252459;22;2583642;-95
2022/12/26 15:26:48;;;;;;;18.92;8.82;;;;;;;;;;10333438;23;20038;-93
2022/12/26 15:31:27;;;;;;;23.23;13.90;;;;;;;;;;10363890;23;20019;-95
2022/12/26 15:35:44;;;;;;;19.55;12.50;;;;;;;;;;10337967;23;20028;-94
2022/12/26 15:40:06;;;;;;;16.52;10.18;;;;;;;;;;10379055;22;20027;-92
2022/12/26 15:44:26;;;;;;;16.35;8.88;;;;;;;;;;10343492;23;20024;-96
2022/12/26 15:48:42;;;;;;;17.15;9.07;;;;;;;;;;10372361;22;20012;-92
2022/12/26 15:53:05;;;;;;;16.15;9.65;;;;;;;;;;10356212;23;20016;-94
2022/12/26 15:57:24;;;;;;;17.23;8.85;;;;;;;;;;10355154;23;20012;-93
2022/12/26 16:01:44;;;;;;;16.25;9.52;;;;;;;;;;10372238;22;20023;-93
2022/12/26 16:06:01;;;;;;;17.85;9.45;;;;;;;;;;10371876;22;20091;-93
2022/12/26 16:10:29;;;;;;;19.38;9.75;;;;;;;;;;10373837;22;20053;-95
2022/12/26 16:14:40;;;;;;;22.90;12.18;;;;;;;;;;10328678;23;20042;-93
2022/12/26 16:18:46;;;;;;;28.17;14.82;;;;;;;;;;10370364;22;20062;-94
2022/12/26 16:22:56;;;;;;;30.48;17.65;;;;;;;;;;10323471;23;20016;-94
2022/12/26 16:27:06;;;;;;;44.10;22.33;;;;;;;;;;10336935;23;20019;-96
2022/12/26 16:31:21;;;;;;;18.73;10.15;;;;;;;;;;10322349;23;20016;-95
2022/12/26 16:35:30;;;;;;;16.92;10.35;;;;;;;;;;10350219;23;20027;-94
2022/12/26 16:39:36;;;;;;;19.55;9.85;;;;;;;;;;10322826;23;20023;-95
2022/12/26 16:43:41;;;;;;;18.35;10.02;;;;;;;;;;10321197;23;20011;-95
2022/12/26 16:47:48;;;;;;;18.85;12.25;;;;;;;;;;10316629;23;20012;-95
2022/12/26 16:51:53;;;;;;;18.67;10.77;;;;;;;;;;10361493;23;20023;-95
2022/12/26 16:56:14;;;;;;;22.50;12.27;;;;;;;;;;10319409;23;20012;-95
2022/12/26 17:00:21;;;;;;;19.30;9.68;;;;;;;;;;10318950;23;20012;-95
2022/12/26 17:04:29;;;;;;;19.40;10.00;;;;;;;;;;10325810;23;20023;-95
2022/12/26 17:08:34;;;;;;;23.77;12.68;;;;;;;;;;10319952;23;20016;-94
2022/12/26 17:12:41;;;;;;;20.02;9.68;;;;;;;;;;10320409;23;20012;-95
2022/12/26 17:16:46;;;;;;;18.90;10.43;;;;;;;;;;10320753;23;20042;-95
2022/12/26 17:20:55;;;;;;;19.63;8.73;;;;;;;;;;10319200;23;20081;-95
2022/12/26 17:25:25;;;;;;;21.05;10.80;;;;;;;;;;10319473;23;20012;-95
2022/12/26 17:29:49;;;;;;;21.80;10.95;;;;;;;;;;10322310;23;20019;-94
2022/12/26 17:33:57;;;;;;;21.55;11.05;;;;;;;;;;10318441;23;20012;-95
2022/12/26 17:38:10;;;;;;;21.13;10.98;;;;;;;;;;10363040;23;20016;-95
2022/12/26 17:42:14;;;;;;;18.95;10.95;;;;;;;;;;10319559;23;20016;-95
2022/12/26 17:46:19;;;;;;;19.13;11.45;;;;;;;;;;10320974;23;20046;-95
2022/12/26 17:50:26;;;;;;;20.10;11.32;;;;;;;;;;10318569;23;20016;-96
2022/12/26 17:54:33;;;;;;;17.95;11.20;;;;;;;;;;10342763;23;20058;-95
2022/12/26 17:58:38;;;;;;;24.92;12.82;;;;;;;;;;10316957;23;20099;-94
2022/12/26 18:02:44;;;;;;;23.40;10.73;;;;;;;;;;10319930;23;20020;-95
2022/12/26 18:06:49;;;;;;;22.88;11.80;;;;;;;;;;10315716;23;20019;-95
2022/12/26 18:10:56;;;;;;;25.23;12.63;;;;;;;;;;10343313;23;20012;-95
2022/12/26 18:15:07;;;;;;;49.88;20.27;;;;;;;;;;10317952;23;20016;-96
2022/12/26 18:19:16;;;;;;;30.00;13.73;;;;;;;;;;10348694;23;20023;-94
2022/12/26 18:23:21;;;;;;;28.88;15.20;;;;;;;;;;10363260;23;20016;-95
2022/12/26 18:27:32;;;;;;;23.85;12.13;;;;;;;;;;10320713;23;20012;-95
2022/12/26 18:31:41;;;;;;;24.10;12.65;;;;;;;;;;10318511;23;20012;-95
2022/12/26 18:35:48;;;;;;;25.73;13.07;;;;;;;;;;10362678;23;20016;-96
2022/12/26 18:39:57;;;;;;;25.10;12.57;;;;;;;;;;10360892;23;20067;-95
2022/12/26 18:44:11;;;;;;;24.98;11.77;;;;;;;;;;10322194;23;20013;-96
2022/12/26 18:48:18;;;;;;;22.58;12.27;;;;;;;;;;10322703;23;20020;-94
2022/12/26 18:52:26;;;;;;;24.10;13.25;;;;;;;;;;10321435;23;20016;-95
2022/12/26 18:56:30;;;;;;;21.92;11.52;;;;;;;;;;10323773;23;20023;-95
2022/12/26 19:00:38;;;;;;;22.45;12.65;;;;;;;;;;10344611;23;20019;-95
2022/12/26 19:04:50;;;;;;;26.23;12.65;;;;;;;;;;10327919;23;20019;-96
2022/12/26 19:09:03;;;;;;;20.88;11.68;;;;;;;;;;10323832;23;20095;-96
2022/12/26 19:13:12;;;;;;;22.23;11.32;;;;;;;;;;10317600;23;20012;-96
2022/12/26 19:17:27;;;;;;;21.83;10.83;;;;;;;;;;10315913;23;20016;-95
2022/12/26 19:21:35;;;;;;;23.25;11.48;;;;;;;;;;10294898;23;20021;-94
2022/12/26 19:25:42;;;;;;;25.70;13.55;;;;;;;;;;10292860;23;20020;-95
2022/12/26 19:29:46;;;;;;;25.25;13.77;;;;;;;;;;10291473;23;20012;-96
2022/12/26 19:34:03;;;;;;;27.05;15.23;;;;;;;;;;10298698;23;20047;-96
2022/12/26 19:38:12;;;;;;;37.53;15.75;;;;;;;;;;10294958;23;20092;-94
2022/12/26 19:42:18;;;;;;;29.27;12.70;;;;;;;;;;10292088;23;20016;-95
2022/12/26 19:46:25;;;;;;;32.45;15.60;;;;;;;;;;10290486;23;20012;-96
2022/12/26 19:50:43;;;;;;;28.75;14.82;;;;;;;;;;10298931;23;20328;-95
2022/12/26 19:54:48;;;;;;;32.45;15.13;;;;;;;;;;10299228;23;20020;-96
2022/12/26 19:58:55;;;;;;;36.17;17.90;;;;;;;;;;10300281;23;20096;-96
2022/12/26 20:03:01;;;;;;;25.85;12.68;;;;;;;;;;10296945;23;20013;-96
2022/12/26 20:07:09;;;;;;;28.98;15.38;;;;;;;;;;10298609;23;20013;-96
2022/12/26 20:11:16;;;;;;;22.80;12.52;;;;;;;;;;10295597;23;20013;-96
2022/12/26 20:15:25;;;;;;;20.88;11.45;;;;;;;;;;10299854;23;20013;-96
2022/12/26 20:19:34;;;;;;;24.42;14.60;;;;;;;;;;10332227;23;20019;-95
2022/12/26 20:23:42;;;;;;;27.67;13.32;;;;;;;;;;10326084;23;20012;-96
2022/12/26 20:27:53;;;;;;;26.85;11.60;;;;;;;;;;10351961;23;20087;-95
2022/12/26 20:32:00;;;;;;;22.05;12.27;;;;;;;;;;10320740;23;20019;-95
2022/12/26 20:36:08;;;;;;;23.92;12.88;;;;;;;;;;10320878;23;20019;-95
2022/12/26 20:40:17;;;;;;;27.60;14.88;;;;;;;;;;10321785;23;20016;-95
2022/12/26 20:44:24;;;;;;;31.20;17.77;;;;;;;;;;10319785;23;20012;-96
2022/12/26 20:48:32;;;;;;;27.05;13.52;;;;;;;;;;10327238;23;20018;-96
2022/12/26 20:52:38;;;;;;;19.38;10.73;;;;;;;;;;10324297;23;20023;-96
2022/12/26 20:56:49;;;;;;;18.23;10.68;;;;;;;;;;10350359;23;20032;-96
2022/12/26 21:01:00;;;;;;;20.77;10.77;;;;;;;;;;10317282;23;20042;-95
2022/12/26 21:05:07;;;;;;;19.02;10.93;;;;;;;;;;10317122;23;20261;-96
2022/12/26 21:09:12;;;;;;;23.30;12.77;;;;;;;;;;10318525;23;20016;-96
2022/12/26 21:13:19;;;;;;;23.42;12.02;;;;;;;;;;10317604;23;20494;-96
2022/12/26 21:17:24;;;;;;;21.38;10.50;;;;;;;;;;10316497;23;20023;-95
2022/12/26 21:21:31;;;;;;;18.77;10.30;;;;;;;;;;10269750;23;20024;-95
2022/12/26 21:25:35;;;;;;;26.20;11.93;;;;;;;;;;10309787;23;20012;-95
2022/12/26 21:29:43;;;;;;;26.83;12.48;;;;;;;;;;10292488;23;20009;-96
2022/12/26 21:33:48;;;;;;;21.60;12.98;;;;;;;;;;10266861;23;20016;-95
2022/12/26 21:37:53;;;;;;;23.60;13.52;;;;;;;;;;10266132;23;20043;-95
2022/12/26 21:41:57;;;;;;;24.20;12.98;;;;;;;;;;10292724;23;20020;-96
2022/12/26 21:46:14;;;;;;;26.85;12.95;;;;;;;;;;10266490;23;20014;-96
2022/12/26 21:50:20;;;;;;;26.73;12.57;;;;;;;;;;10267154;23;20016;-96
2022/12/26 22:07:31;;;;;;;19.33;10.05;;;;;;;;;;10265362;23;20019;-94
2022/12/26 22:16:03;;;;;;;19.97;9.30;;;;;;;;;;10270412;23;20023;-95
2022/12/26 22:20:10;;;;;;;16.80;9.55;;;;;;;;;;10325212;23;20016;-94
2022/12/26 22:24:16;;;;;;;17.75;8.55;;;;;;;;;;10376781;23;20027;-95
2022/12/26 22:28:25;;;;;;;17.45;9.75;;;;;;;;;;10294834;23;20012;-95
2022/12/26 22:32:30;;;;;;;22.95;9.95;;;;;;;;;;10341258;23;20016;-95
2022/12/26 22:36:38;;;;;;;19.83;9.23;;;;;;;;;;10359280;23;20012;-94
2022/12/26 22:40:42;;;;;;;17.65;9.07;;;;;;;;;;10314976;23;20012;-95
2022/12/26 22:44:46;;;;;;;22.80;10.07;;;;;;;;;;10315356;23;20056;-94
2022/12/26 22:48:50;;;;;;;24.20;10.90;;;;;;;;;;10314231;23;20019;-96
2022/12/26 22:52:57;;;;;;;18.98;9.40;;;;;;;;;;10361081;23;20016;-94
2022/12/26 22:57:01;;;;;;;20.38;9.80;;;;;;;;;;10359863;23;20016;-94
2022/12/26 23:01:13;;;;;;;19.52;8.60;;;;;;;;;;10240221;23;20043;-94
2022/12/26 23:05:18;;;;;;;20.48;10.73;;;;;;;;;;10212388;23;20043;-93
2022/12/26 23:09:25;;;;;;;25.75;11.20;;;;;;;;;;10211639;23;20041;-93
2022/12/26 23:13:29;;;;;;;30.13;11.82;;;;;;;;;;10211850;23;20013;-94
2022/12/26 23:22:02;;;;;;;26.20;12.93;;;;;;;;;;10365767;23;20069;-95
2022/12/26 23:26:10;;;;;;;25.77;11.95;;;;;;;;;;10352652;23;20067;-95
2022/12/26 23:30:19;;;;;;;30.88;14.27;;;;;;;;;;10325373;23;20012;-93
2022/12/26 23:34:24;;;;;;;34.63;15.15;;;;;;;;;;10326766;23;20031;-94
2022/12/26 23:38:28;;;;;;;42.17;16.95;;;;;;;;;;10351971;23;20023;-95
2022/12/26 23:42:35;;;;;;;37.88;16.60;;;;;;;;;;10322203;23;20016;-94
2022/12/26 23:46:40;;;;;;;42.65;17.02;;;;;;;;;;10361527;23;20025;-94
2022/12/26 23:50:45;;;;;;;38.40;17.30;;;;;;;;;;10345387;23;20015;-93
2022/12/26 23:54:49;;;;;;;58.50;20.08;;;;;;;;;;10318033;23;20020;-94
2022/12/26 23:58:56;;;;;;;46.33;17.83;;;;;;;;;;10346069;23;20012;-95
